createdAt,value
2022-10-18T00:02:38.923Z,5.57
2022-10-18T00:05:28.868Z,5.47
2022-10-18T00:08:20.200Z,6.15
2022-10-18T00:11:10.385Z,6.53
2022-10-18T00:14:00.907Z,5.97
2022-10-18T00:16:50.920Z,5.38
2022-10-18T00:19:40.871Z,5.47
2022-10-18T00:22:31.099Z,5.60
2022-10-18T00:25:21.387Z,5.18
2022-10-18T00:28:11.311Z,5.50
2022-10-18T00:31:20.320Z,4.90
2022-10-18T00:34:15.642Z,5.40
2022-10-18T00:37:06.655Z,5.05
2022-10-18T00:39:56.599Z,5.40
2022-10-18T00:42:46.375Z,6.40
2022-10-18T00:45:36.179Z,6.05
2022-10-18T00:48:26.384Z,6.05
2022-10-18T00:51:19.354Z,5.85
2022-10-18T00:54:09.457Z,6.32
2022-10-18T00:56:59.736Z,6.57
2022-10-18T00:59:49.951Z,6.47
2022-10-18T01:02:42.561Z,6.53
2022-10-18T01:05:33.453Z,6.68
2022-10-18T01:08:31.183Z,6.15
2022-10-18T01:11:21.242Z,6.43
2022-10-18T01:14:18.524Z,5.88
2022-10-18T01:17:16.367Z,7.00
2022-10-18T01:20:09.714Z,6.40
2022-10-18T01:23:13.756Z,7.15
2022-10-18T01:26:36.890Z,6.75
2022-10-18T01:29:52.113Z,7.38
2022-10-18T01:32:51.164Z,6.13
2022-10-18T01:35:47.297Z,6.35
2022-10-18T01:38:40.362Z,6.95
2022-10-18T01:41:30.773Z,7.07
2022-10-18T01:44:25.161Z,7.82
2022-10-18T01:47:16.614Z,6.78
2022-10-18T01:50:07.044Z,7.30
2022-10-18T01:52:57.002Z,7.22
2022-10-18T01:55:55.155Z,7.10
2022-10-18T01:59:34.543Z,6.97
2022-10-18T02:02:47.000Z,6.45
2022-10-18T02:05:48.712Z,7.50
2022-10-18T02:08:45.772Z,6.60
2022-10-18T02:11:38.035Z,7.05
2022-10-18T02:14:28.337Z,6.13
2022-10-18T02:17:21.024Z,6.03
2022-10-18T02:20:13.042Z,6.60
2022-10-18T02:23:06.823Z,6.25
2022-10-18T02:25:56.915Z,6.57
2022-10-18T02:28:46.830Z,7.15
2022-10-18T02:31:44.271Z,6.50
2022-10-18T02:35:03.553Z,6.50
2022-10-18T02:37:54.464Z,6.95
2022-10-18T02:40:44.684Z,7.22
2022-10-18T02:43:35.448Z,7.03
2022-10-18T02:49:20.399Z,6.47
2022-10-18T02:52:10.315Z,6.05
2022-10-18T02:55:01.205Z,6.45
2022-10-18T02:57:51.162Z,6.40
2022-10-18T03:00:41.028Z,6.07
2022-10-18T03:03:30.918Z,6.05
2022-10-18T03:06:20.841Z,6.30
2022-10-18T03:09:10.844Z,6.72
2022-10-18T03:12:00.775Z,6.85
2022-10-18T03:14:51.043Z,6.40
2022-10-18T03:17:41.410Z,6.95
2022-10-18T03:20:31.233Z,6.15
2022-10-18T03:23:21.592Z,6.45
2022-10-18T03:26:11.527Z,5.88
2022-10-18T03:29:01.708Z,6.65
2022-10-18T03:31:51.776Z,6.30
2022-10-18T03:34:41.695Z,6.43
2022-10-18T03:37:31.489Z,6.07
2022-10-18T03:40:21.406Z,6.05
2022-10-18T03:43:11.436Z,5.57
2022-10-18T03:46:01.779Z,5.53
2022-10-18T03:48:52.029Z,5.65
2022-10-18T03:51:42.025Z,6.03
2022-10-18T03:54:31.884Z,6.18
2022-10-18T03:57:22.037Z,6.13
2022-10-18T04:00:13.212Z,5.45
2022-10-18T04:03:04.463Z,5.72
2022-10-18T04:05:54.396Z,5.72
2022-10-18T04:08:44.324Z,5.03
2022-10-18T04:11:34.346Z,6.70
2022-10-18T04:14:24.616Z,5.72
2022-10-18T04:17:14.840Z,5.82
2022-10-18T04:20:05.566Z,5.40
2022-10-18T04:22:57.463Z,5.55
2022-10-18T04:25:47.587Z,4.95
2022-10-18T04:28:40.067Z,5.22
2022-10-18T04:31:30.754Z,5.60
2022-10-18T04:34:21.129Z,5.47
2022-10-18T04:37:11.348Z,5.00
2022-10-18T04:40:01.623Z,6.10
2022-10-18T04:42:51.850Z,5.97
2022-10-18T04:45:41.993Z,5.72
2022-10-18T04:48:31.858Z,7.90
2022-10-18T04:51:22.578Z,7.15
2022-10-18T04:54:12.679Z,6.25
2022-10-18T04:57:02.650Z,5.50
2022-10-18T04:59:52.862Z,5.60
2022-10-18T05:02:42.739Z,6.60
2022-10-18T05:05:49.553Z,6.10
2022-10-18T05:08:42.850Z,5.28
2022-10-18T05:11:33.165Z,5.10
2022-10-18T05:14:23.196Z,5.28
2022-10-18T05:17:12.982Z,4.63
2022-10-18T05:20:03.988Z,5.68
2022-10-18T05:22:53.988Z,5.53
2022-10-18T05:25:44.086Z,5.38
2022-10-18T05:28:39.994Z,4.95
2022-10-18T05:31:30.421Z,4.90
2022-10-18T05:34:20.851Z,4.88
2022-10-18T05:37:11.257Z,4.85
2022-10-18T05:40:01.668Z,5.05
2022-10-18T05:42:52.468Z,4.93
2022-10-18T05:45:48.354Z,5.07
2022-10-18T05:48:38.722Z,5.18
2022-10-18T05:51:28.919Z,5.28
2022-10-18T05:54:18.895Z,4.65
2022-10-18T05:57:09.107Z,4.88
2022-10-18T05:59:59.376Z,4.95
2022-10-18T06:02:49.490Z,5.07
2022-10-18T06:08:35.795Z,5.15
2022-10-18T06:11:26.172Z,5.00
2022-10-18T06:14:16.065Z,5.40
2022-10-18T06:17:06.167Z,5.40
2022-10-18T06:19:56.303Z,5.20
2022-10-18T06:22:46.092Z,4.90
2022-10-18T06:25:36.039Z,6.13
2022-10-18T06:28:26.662Z,5.82
2022-10-18T06:31:17.653Z,5.85
2022-10-18T06:34:08.013Z,5.97
2022-10-18T06:36:58.866Z,6.03
2022-10-18T06:39:48.981Z,5.60
2022-10-18T06:42:39.054Z,5.47
2022-10-18T06:45:29.208Z,6.25
2022-10-18T06:51:15.335Z,5.45
2022-10-18T06:54:17.624Z,5.75
2022-10-18T06:57:08.180Z,5.15
2022-10-18T06:59:58.149Z,5.80
2022-10-18T07:02:48.023Z,6.03
2022-10-18T07:05:37.953Z,5.45
2022-10-18T07:08:28.344Z,5.72
2022-10-18T07:11:25.111Z,6.28
2022-10-18T07:14:16.427Z,6.05
2022-10-18T07:17:07.614Z,5.80
2022-10-18T07:19:57.874Z,5.75
2022-10-18T07:22:47.714Z,5.93
2022-10-18T07:25:37.681Z,5.75
2022-10-18T07:28:28.848Z,5.30
2022-10-18T07:31:18.858Z,6.32
2022-10-18T07:34:11.885Z,5.90
2022-10-18T07:37:02.127Z,5.55
2022-10-18T07:39:51.938Z,5.82
2022-10-18T07:42:42.489Z,5.60
2022-10-18T07:45:32.521Z,5.60
2022-10-18T07:48:22.924Z,5.97
2022-10-18T07:51:13.693Z,7.30
2022-10-18T07:54:03.917Z,5.85
2022-10-18T07:56:54.395Z,6.88
2022-10-18T07:59:51.214Z,7.20
2022-10-18T08:02:41.741Z,7.28
2022-10-18T08:08:24.294Z,7.35
2022-10-18T08:11:17.452Z,6.95
2022-10-18T08:14:07.356Z,6.70
2022-10-18T08:16:57.166Z,6.40
2022-10-18T08:19:58.337Z,6.20
2022-10-18T08:23:00.108Z,7.72
2022-10-18T08:25:50.894Z,6.50
2022-10-18T08:28:46.104Z,7.10
2022-10-18T08:31:43.854Z,6.70
2022-10-18T08:34:34.804Z,6.28
2022-10-18T08:37:25.135Z,6.30
2022-10-18T08:40:15.758Z,7.00
2022-10-18T08:43:19.340Z,6.78
2022-10-18T08:46:12.758Z,6.93
2022-10-18T08:49:04.218Z,6.03
2022-10-18T08:51:55.061Z,5.93
2022-10-18T08:55:02.013Z,6.38
2022-10-18T08:57:52.839Z,6.38
2022-10-18T09:01:07.565Z,6.28
2022-10-18T09:04:16.227Z,5.70
2022-10-18T09:07:37.413Z,6.70
2022-10-18T09:10:48.589Z,5.78
2022-10-18T09:14:14.372Z,5.90
2022-10-18T09:17:28.018Z,6.78
2022-10-18T09:20:28.523Z,5.40
2022-10-18T09:23:21.604Z,5.32
2022-10-18T09:26:20.510Z,5.32
2022-10-18T09:29:26.436Z,5.18
2022-10-18T09:32:45.545Z,5.18
2022-10-18T09:36:05.309Z,4.90
2022-10-18T09:39:03.797Z,5.07
2022-10-18T09:42:07.304Z,4.68
2022-10-18T09:45:01.979Z,4.63
2022-10-18T09:48:06.244Z,5.25
2022-10-18T09:51:12.397Z,4.82
2022-10-18T09:54:05.911Z,4.97
2022-10-18T09:57:10.917Z,4.45
2022-10-18T10:00:03.323Z,4.78
2022-10-18T10:02:55.179Z,4.30
2022-10-18T10:05:45.540Z,4.20
2022-10-18T10:08:35.288Z,4.00
2022-10-18T10:11:40.303Z,4.45
2022-10-18T10:14:30.755Z,3.90
2022-10-18T10:17:25.066Z,3.88
2022-10-18T10:20:21.513Z,3.33
2022-10-18T10:23:14.571Z,3.70
2022-10-18T10:26:20.244Z,2.93
2022-10-18T10:29:48.501Z,3.25
2022-10-18T10:32:47.959Z,3.13
2022-10-18T10:35:56.095Z,2.80
2022-10-18T10:39:01.734Z,3.13
2022-10-18T10:42:00.314Z,3.75
2022-10-18T10:44:55.287Z,2.95
2022-10-18T10:47:46.030Z,3.13
2022-10-18T10:51:00.240Z,3.20
2022-10-18T10:53:59.271Z,3.67
2022-10-18T10:56:55.521Z,2.70
2022-10-18T10:59:48.859Z,3.47
2022-10-18T11:02:39.507Z,3.25
2022-10-18T11:05:29.975Z,3.00
2022-10-18T11:08:24.204Z,3.00
2022-10-18T11:11:31.639Z,2.50
2022-10-18T11:14:27.319Z,3.03
2022-10-18T11:17:27.645Z,2.70
2022-10-18T11:20:27.220Z,2.55
2022-10-18T11:23:18.870Z,2.83
2022-10-18T11:26:11.799Z,2.90
2022-10-18T11:29:26.386Z,2.80
2022-10-18T11:32:41.437Z,3.00
2022-10-18T11:35:58.163Z,3.30
2022-10-18T11:39:03.030Z,2.83
2022-10-18T11:42:14.377Z,2.90
2022-10-18T11:45:10.548Z,2.83
2022-10-18T11:48:32.073Z,3.30
2022-10-18T11:52:08.231Z,2.83
2022-10-18T11:55:28.894Z,2.28
2022-10-18T11:58:37.434Z,3.58
2022-10-18T12:01:36.611Z,2.50
2022-10-18T12:04:53.117Z,2.70
2022-10-18T12:08:07.529Z,2.85
2022-10-18T12:11:05.573Z,2.60
2022-10-18T12:14:03.729Z,2.90
2022-10-18T12:17:20.389Z,3.00
2022-10-18T12:20:33.003Z,3.00
2022-10-18T12:23:37.147Z,2.60
2022-10-18T12:26:29.449Z,2.83
2022-10-18T12:29:35.157Z,2.85
2022-10-18T12:32:28.251Z,2.70
2022-10-18T12:35:20.283Z,2.72
2022-10-18T12:38:31.199Z,2.50
2022-10-18T12:41:41.650Z,2.33
2022-10-18T12:44:34.207Z,2.83
2022-10-18T12:47:25.715Z,2.53
2022-10-18T12:50:37.687Z,2.60
2022-10-18T12:53:29.364Z,2.40
2022-10-18T12:56:28.869Z,2.20
2022-10-18T12:59:19.537Z,2.70
2022-10-18T13:02:23.625Z,2.90
2022-10-18T13:05:53.552Z,2.38
2022-10-18T13:08:45.965Z,2.50
2022-10-18T13:11:36.765Z,2.53
2022-10-18T13:14:41.148Z,3.03
2022-10-18T13:17:44.392Z,3.15
2022-10-18T13:20:40.139Z,3.20
2022-10-18T13:24:05.990Z,3.15
2022-10-18T13:27:24.015Z,2.90
2022-10-18T13:30:29.845Z,3.17
2022-10-18T13:33:30.585Z,2.70
2022-10-18T13:36:29.291Z,3.20
2022-10-18T13:39:20.623Z,3.30
2022-10-18T13:42:40.040Z,2.95
2022-10-18T13:45:33.045Z,2.80
2022-10-18T13:48:29.272Z,2.70
2022-10-18T13:51:45.763Z,2.65
2022-10-18T13:54:38.721Z,2.65
2022-10-18T13:58:03.517Z,2.60
2022-10-18T14:01:18.272Z,2.30
2022-10-18T14:04:28.190Z,1.75
2022-10-18T14:07:19.284Z,2.00
2022-10-18T14:10:20.549Z,2.22
2022-10-18T14:13:20.748Z,1.90
2022-10-18T14:16:43.604Z,2.00
2022-10-18T14:19:39.650Z,2.10
2022-10-18T14:22:38.337Z,2.13
2022-10-18T14:25:35.720Z,2.20
2022-10-18T14:28:36.183Z,2.30
2022-10-18T14:31:27.930Z,2.38
2022-10-18T14:34:18.209Z,2.42
2022-10-18T14:37:20.198Z,2.40
2022-10-18T14:40:25.962Z,2.58
2022-10-18T14:43:19.432Z,2.65
2022-10-18T14:46:15.934Z,2.72
2022-10-18T14:49:07.306Z,2.90
2022-10-18T14:52:00.175Z,2.70
2022-10-18T14:54:50.277Z,2.75
2022-10-18T14:57:40.571Z,2.72
2022-10-18T15:00:37.450Z,3.17
2022-10-18T15:03:28.372Z,2.92
2022-10-18T15:06:19.778Z,2.70
2022-10-18T15:09:12.518Z,3.00
2022-10-18T15:12:06.232Z,3.35
2022-10-18T15:14:56.614Z,3.20
2022-10-18T15:17:48.275Z,2.97
2022-10-18T15:20:42.917Z,3.28
2022-10-18T15:23:33.302Z,3.35
2022-10-18T15:26:30.422Z,3.05
2022-10-18T15:29:21.461Z,3.33
2022-10-18T15:32:21.089Z,3.60
2022-10-18T15:35:23.442Z,3.25
2022-10-18T15:38:27.381Z,3.10
2022-10-18T15:41:56.922Z,2.95
2022-10-18T15:44:49.133Z,2.92
2022-10-18T15:47:39.288Z,3.00
2022-10-18T15:50:44.183Z,3.17
2022-10-18T15:53:50.745Z,3.10
2022-10-18T15:56:41.383Z,3.25
2022-10-18T15:59:32.125Z,3.08
2022-10-18T16:02:22.194Z,3.15
2022-10-18T16:05:20.646Z,3.20
2022-10-18T16:08:19.668Z,3.00
2022-10-18T16:11:20.497Z,3.40
2022-10-18T16:14:10.730Z,3.60
2022-10-18T16:17:04.406Z,3.38
2022-10-18T16:19:54.541Z,3.10
2022-10-18T16:22:46.972Z,3.65
2022-10-18T16:25:36.848Z,3.15
2022-10-18T16:28:28.227Z,3.92
2022-10-18T16:31:24.082Z,3.50
2022-10-18T16:34:15.111Z,4.20
2022-10-18T16:37:09.435Z,4.47
2022-10-18T16:39:59.641Z,3.85
2022-10-18T16:42:52.476Z,3.70
2022-10-18T16:45:42.594Z,3.75
2022-10-18T16:48:33.016Z,4.43
2022-10-18T16:51:23.438Z,3.95
2022-10-18T16:54:13.718Z,4.45
2022-10-18T16:57:03.917Z,3.60
2022-10-18T16:59:54.824Z,4.10
2022-10-18T17:02:45.425Z,3.95
2022-10-18T17:05:35.354Z,3.92
2022-10-18T17:08:27.419Z,4.40
2022-10-18T17:11:36.115Z,3.78
2022-10-18T17:14:26.614Z,4.55
2022-10-18T17:17:17.522Z,4.45
2022-10-18T17:20:08.581Z,4.30
2022-10-18T17:22:58.805Z,4.53
2022-10-18T17:26:04.707Z,4.40
2022-10-18T17:29:05.571Z,4.07
2022-10-18T17:31:55.521Z,4.65
2022-10-18T17:34:45.437Z,4.32
2022-10-18T17:37:35.610Z,4.20
2022-10-18T17:40:25.818Z,4.65
2022-10-18T17:43:15.845Z,5.68
2022-10-18T17:46:06.155Z,5.70
2022-10-18T17:48:56.711Z,4.95
2022-10-18T17:51:46.606Z,5.00
2022-10-18T17:54:36.571Z,4.40
2022-10-18T17:57:26.937Z,3.90
2022-10-18T18:00:17.270Z,4.28
2022-10-18T18:03:07.363Z,4.30
2022-10-18T18:05:57.812Z,4.45
2022-10-18T18:08:48.922Z,4.60
2022-10-18T18:11:40.893Z,4.80
2022-10-18T18:14:31.108Z,4.55
2022-10-18T18:17:28.721Z,5.63
2022-10-18T18:20:25.418Z,4.90
2022-10-18T18:23:15.747Z,5.13
2022-10-18T18:26:06.092Z,4.63
2022-10-18T18:28:56.140Z,4.75
2022-10-18T18:31:47.169Z,4.82
2022-10-18T18:34:37.968Z,5.32
2022-10-18T18:37:28.448Z,5.45
2022-10-18T18:40:18.575Z,5.00
2022-10-18T18:43:22.691Z,4.88
2022-10-18T18:46:13.752Z,4.43
2022-10-18T18:49:05.051Z,5.30
2022-10-18T18:51:55.314Z,5.05
2022-10-18T18:54:45.656Z,5.13
2022-10-18T18:57:35.639Z,4.80
2022-10-18T19:00:26.103Z,4.55
2022-10-18T19:03:15.968Z,4.25
2022-10-18T19:06:08.358Z,4.68
2022-10-18T19:09:00.769Z,4.70
2022-10-18T19:11:52.898Z,4.28
2022-10-18T19:14:43.188Z,4.32
2022-10-18T19:17:33.548Z,4.93
2022-10-18T19:20:23.550Z,4.80
2022-10-18T19:23:13.389Z,5.53
2022-10-18T19:26:17.832Z,5.93
2022-10-18T19:29:32.110Z,6.13
2022-10-18T19:32:22.310Z,5.93
2022-10-18T19:35:12.341Z,5.25
2022-10-18T19:38:02.102Z,5.28
2022-10-18T19:40:53.821Z,5.85
2022-10-18T19:43:43.868Z,5.70
2022-10-18T19:46:33.747Z,6.18
2022-10-18T19:49:24.246Z,5.30
2022-10-18T19:52:14.268Z,5.60
2022-10-18T19:55:05.051Z,6.05
2022-10-18T19:57:55.027Z,6.32
2022-10-18T20:00:44.940Z,5.70
2022-10-18T20:03:35.585Z,5.82
2022-10-18T20:06:26.094Z,6.10
2022-10-18T20:09:19.479Z,5.70
2022-10-18T20:12:11.078Z,5.15
2022-10-18T20:15:01.303Z,5.82
2022-10-18T20:17:51.284Z,5.93
2022-10-18T20:20:44.545Z,6.20
2022-10-18T20:23:39.155Z,5.72
2022-10-18T20:26:29.384Z,5.97
2022-10-18T20:29:20.003Z,6.43
2022-10-18T20:32:10.064Z,7.13
2022-10-18T20:35:00.211Z,6.88
2022-10-18T20:37:50.187Z,6.50
2022-10-18T20:40:40.534Z,6.25
2022-10-18T20:43:30.563Z,6.00
2022-10-18T20:46:21.163Z,6.20
2022-10-18T20:49:15.065Z,6.20
2022-10-18T20:52:04.985Z,5.57
2022-10-18T20:54:54.798Z,6.15
2022-10-18T20:57:44.631Z,6.03
2022-10-18T21:00:35.028Z,13.95
2022-10-18T21:03:25.174Z,8.93
2022-10-18T21:06:31.967Z,7.93
2022-10-18T21:09:22.330Z,5.90
2022-10-18T21:12:12.656Z,5.20
2022-10-18T21:15:02.605Z,5.00
2022-10-18T21:17:53.708Z,5.82
2022-10-18T21:20:43.516Z,5.90
2022-10-18T21:23:33.825Z,6.10
2022-10-18T21:26:26.360Z,7.20
2022-10-18T21:29:21.938Z,6.97
2022-10-18T21:32:12.703Z,6.88
2022-10-18T21:35:02.715Z,7.38
2022-10-18T21:37:52.799Z,7.47
2022-10-18T21:40:44.512Z,7.25
2022-10-18T21:43:34.925Z,7.38
2022-10-18T21:46:28.846Z,8.35
2022-10-18T21:52:09.344Z,6.57
2022-10-18T21:54:59.170Z,7.50
2022-10-18T21:57:49.135Z,7.30
2022-10-18T22:00:39.135Z,8.02
2022-10-18T22:03:29.717Z,8.05
2022-10-18T22:06:20.410Z,7.45
2022-10-18T22:09:10.617Z,7.60
2022-10-18T22:12:00.793Z,11.13
2022-10-18T22:14:50.754Z,14.50
2022-10-18T22:17:40.579Z,7.93
2022-10-18T22:20:30.527Z,7.30
2022-10-18T22:23:21.112Z,7.40
2022-10-18T22:26:42.230Z,7.22
2022-10-18T22:29:32.366Z,7.05
2022-10-18T22:32:23.005Z,7.63
2022-10-18T22:35:12.948Z,7.57
2022-10-18T22:38:03.152Z,8.30
2022-10-18T22:40:53.454Z,10.68
2022-10-18T22:43:43.478Z,8.90
2022-10-18T22:46:34.128Z,8.85
2022-10-18T22:49:24.197Z,9.60
2022-10-18T22:52:14.063Z,9.02
2022-10-18T22:55:04.345Z,12.77
2022-10-18T22:57:56.166Z,8.82
2022-10-18T23:00:46.707Z,9.48
2022-10-18T23:03:38.120Z,8.55
2022-10-18T23:06:36.006Z,9.20
2022-10-18T23:09:26.725Z,9.23
2022-10-18T23:12:17.045Z,7.75
2022-10-18T23:15:07.770Z,7.63
2022-10-18T23:17:59.169Z,7.45
2022-10-18T23:20:49.450Z,8.00
2022-10-18T23:23:41.850Z,9.45
2022-10-18T23:26:32.337Z,10.88
2022-10-18T23:29:22.465Z,10.02
2022-10-18T23:32:12.432Z,9.55
2022-10-18T23:35:02.249Z,9.73
2022-10-18T23:37:52.599Z,10.18
2022-10-18T23:40:42.456Z,10.93
2022-10-18T23:43:32.900Z,10.40
2022-10-18T23:46:22.828Z,9.52
2022-10-18T23:49:13.136Z,10.20
2022-10-18T23:52:03.037Z,9.20
2022-10-18T23:54:52.963Z,9.48
2022-10-18T23:57:43.046Z,9.88
